Terminal Aerodrome Forecast
Issued by NWS

Home | Current Version | Previous Version | Text Only | Print | Product List | Glossary On
Versions: 1 2 3 4 5 6 7 8 9 10 11 12 13 14 15 16 17 18 19 20 21 22 23 24 25
000
FTUS45 KPSR 311100
TAFIWA
TAF
KIWA 311120Z 3112/0112 12008KT P6SM SCT150 BKN250
     FM311700 23010KT P6SM BKN150 BKN250
     FM010400 12005KT P6SM BKN150
      AMD NOT SKED TIL 311200=

USA.gov is the U.S. government's official web portal to all federal, state and local government web resources and services.